LEZL/SVQ METAR and TAF weather

Enter ICAO airport designator
Station Type Date Time Source
LEZL METAR 2021/04/17 02:00 UTC NOAA

LEZL 170200Z AUTO 21006KT 190V250 9999 BKN006 15/14 Q1016


Station Type Date Time Source
LEZL Decoded METAR 2021/04/17 02:00 UTC NOAA

Sevilla / San Pablo, Spain (LEZL) 37-25N 005-54W 31M
Apr 16, 2021 - 10:00 PM EDT / 2021.04.17 0200 UTC
Wind: from the SSW (210 degrees) at 7 MPH (6 KT) (direction variable):0
Visibility: greater than 7 mile(s):0
Sky conditions: mostly cloudy
Temperature: 59 F (15 C)
Dew Point: 57 F (14 C)
Relative Humidity: 93%
Pressure (altimeter): 30.00 in. Hg (1016 hPa)
ob: LEZL 170200Z AUTO 21006KT 190V250 9999 BKN006 15/14 Q1016
cycle: 2

Station Type Date Time Source
LEZL TAF 2021/04/16 21:27 UTC NOAA

TAF LEZL 162000Z 1621/1721 24005KT 9999 FEW040 TX24/1715Z TN13/1706Z PROB40
TEMPO 1703/1709 3000 BR BCFG BKN008

Example: see airport list